Time;durP1;ratioP1;P1;durP2;ratioP2;P2;SDS_P1;SDS_P2;PMS_P1;PMS_P2;Temp;Humidity;BMP_temperature;BMP_pressure;BME280_temperature;BME280_humidity;BME280_pressure;Samples;Min_cycle;Max_cycle;Signal;HPM_P1;HPM_P2
2024/03/14 00:00:17;;;;;;;2.78;2.53;;;;;;;;;;1042602;28;20021;-73
2024/03/14 00:00:49;;;;;;;6.30;1.40;;;;;;;;;;1043076;28;20020;-72
2024/03/14 00:01:19;;;;;;;0.55;0.55;;;;;;;;;;1038778;28;20021;-71
2024/03/14 00:01:52;;;;;;;1.00;1.00;;;;;;;;;;1036744;28;20398;-71
2024/03/14 00:02:23;;;;;;;2.15;1.95;;;;;;;;;;1037322;28;20017;-73
2024/03/14 00:02:54;;;;;;;5.88;2.90;;;;;;;;;;1040910;28;20538;-72
2024/03/14 00:03:28;;;;;;;1.63;1.55;;;;;;;;;;1044979;28;20104;-74
2024/03/14 00:03:59;;;;;;;17.35;2.45;;;;;;;;;;1047835;28;20434;-74
2024/03/14 00:04:29;;;;;;;2.80;2.08;;;;;;;;;;1046070;28;20021;-72
2024/03/14 00:05:01;;;;;;;3.47;1.40;;;;;;;;;;1047481;28;20026;-72
2024/03/14 00:05:32;;;;;;;2.33;2.03;;;;;;;;;;1047968;28;20447;-72
2024/03/14 00:06:04;;;;;;;2.60;2.42;;;;;;;;;;1044693;28;20043;-72
2024/03/14 00:06:35;;;;;;;2.67;2.47;;;;;;;;;;1042569;28;20052;-72
2024/03/14 00:07:07;;;;;;;3.03;1.85;;;;;;;;;;1044008;28;20283;-73
2024/03/14 00:07:38;;;;;;;10.68;2.47;;;;;;;;;;1044467;28;20071;-72
2024/03/14 00:08:09;;;;;;;4.68;2.20;;;;;;;;;;1039879;28;20025;-72
2024/03/14 00:08:40;;;;;;;2.00;1.02;;;;;;;;;;1045410;28;20186;-74
2024/03/14 00:09:13;;;;;;;3.75;2.17;;;;;;;;;;1040841;28;20018;-73
2024/03/14 00:09:43;;;;;;;2.35;2.15;;;;;;;;;;1041446;28;20112;-73
2024/03/14 00:10:14;;;;;;;4.82;1.75;;;;;;;;;;1041015;28;20021;-72
2024/03/14 00:10:47;;;;;;;5.57;2.55;;;;;;;;;;1041507;28;20503;-72
2024/03/14 00:11:18;;;;;;;2.35;2.17;;;;;;;;;;1041178;28;20530;-72
2024/03/14 00:11:49;;;;;;;4.38;2.50;;;;;;;;;;1041625;28;20044;-73
2024/03/14 00:12:20;;;;;;;1.20;1.17;;;;;;;;;;1043883;28;20052;-73
2024/03/14 00:12:51;;;;;;;4.15;2.38;;;;;;;;;;1041348;28;20103;-73
2024/03/14 00:13:23;;;;;;;5.65;3.45;;;;;;;;;;1046285;28;20028;-72
2024/03/14 00:13:55;;;;;;;1.85;1.75;;;;;;;;;;1046392;28;20056;-73
2024/03/14 00:14:28;;;;;;;2.60;2.38;;;;;;;;;;1043029;28;20435;-73
2024/03/14 00:14:59;;;;;;;3.30;1.38;;;;;;;;;;1042918;28;20025;-73
2024/03/14 00:15:30;;;;;;;3.17;2.03;;;;;;;;;;1042812;28;20028;-72
2024/03/14 00:16:00;;;;;;;2.78;2.58;;;;;;;;;;1042851;28;20020;-71
2024/03/14 00:16:31;;;;;;;1.25;1.15;;;;;;;;;;1046198;28;20028;-74
2024/03/14 00:17:02;;;;;;;2.15;1.65;;;;;;;;;;1046931;28;20017;-72
2024/03/14 00:17:33;;;;;;;1.75;1.55;;;;;;;;;;1046189;28;20030;-73
2024/03/14 00:18:04;;;;;;;1.73;1.63;;;;;;;;;;1042555;28;20029;-73
2024/03/14 00:18:35;;;;;;;12.05;4.18;;;;;;;;;;1042876;28;20056;-73
2024/03/14 00:19:07;;;;;;;0.45;0.45;;;;;;;;;;1042512;28;20017;-72
2024/03/14 00:19:38;;;;;;;1.45;1.30;;;;;;;;;;1042754;28;20016;-73
2024/03/14 00:20:11;;;;;;;4.95;2.25;;;;;;;;;;1042479;28;20030;-72
2024/03/14 00:20:42;;;;;;;1.52;1.42;;;;;;;;;;1043285;28;20096;-72
2024/03/14 00:21:14;;;;;;;7.13;1.70;;;;;;;;;;1047319;28;20028;-72
2024/03/14 00:21:45;;;;;;;6.35;1.27;;;;;;;;;;1046987;28;20048;-73
2024/03/14 00:22:21;;;;;;;4.43;2.13;;;;;;;;;;1047072;28;20424;-72
2024/03/14 00:22:52;;;;;;;6.57;2.60;;;;;;;;;;1043990;28;20013;-73
2024/03/14 00:23:23;;;;;;;6.32;3.55;;;;;;;;;;1042370;28;20484;-73
2024/03/14 00:23:54;;;;;;;7.97;3.83;;;;;;;;;;1042567;28;20013;-71
2024/03/14 00:24:24;;;;;;;2.53;2.22;;;;;;;;;;1042641;28;20488;-71
2024/03/14 00:24:57;;;;;;;3.45;1.52;;;;;;;;;;1045886;28;20028;-73
2024/03/14 00:25:27;;;;;;;2.03;1.85;;;;;;;;;;1044785;28;20040;-72
2024/03/14 00:25:58;;;;;;;3.90;2.78;;;;;;;;;;1044600;28;20024;-72
2024/03/14 00:26:31;;;;;;;1.70;1.50;;;;;;;;;;1044430;28;20423;-72
2024/03/14 00:27:03;;;;;;;1.90;1.80;;;;;;;;;;1044993;28;20024;-72
2024/03/14 00:27:33;;;;;;;5.10;3.13;;;;;;;;;;1046628;28;20024;-72
2024/03/14 00:28:04;;;;;;;6.53;2.60;;;;;;;;;;1042014;28;20025;-72
2024/03/14 00:28:35;;;;;;;2.90;2.70;;;;;;;;;;1038743;28;20108;-73
2024/03/14 00:29:07;;;;;;;1.75;1.65;;;;;;;;;;1042311;28;20026;-72
2024/03/14 00:29:41;;;;;;;1.92;1.50;;;;;;;;;;1042993;28;20103;-73
2024/03/14 00:30:14;;;;;;;1.23;1.17;;;;;;;;;;1047434;28;20047;-73
2024/03/14 00:30:45;;;;;;;4.18;3.78;;;;;;;;;;1045568;28;20032;-73
2024/03/14 00:31:16;;;;;;;2.05;1.95;;;;;;;;;;1042043;28;20033;-73
2024/03/14 00:31:47;;;;;;;3.08;1.77;;;;;;;;;;1044510;28;20103;-73
2024/03/14 00:32:18;;;;;;;5.95;2.70;;;;;;;;;;1044676;28;20075;-73
2024/03/14 00:32:49;;;;;;;2.05;1.10;;;;;;;;;;1044578;28;20017;-73
2024/03/14 00:33:20;;;;;;;16.15;2.40;;;;;;;;;;1044443;28;20020;-73
2024/03/14 00:33:51;;;;;;;21.17;2.53;;;;;;;;;;1046523;28;20059;-72
2024/03/14 00:34:21;;;;;;;1.95;1.60;;;;;;;;;;1042906;28;20514;-73
2024/03/14 00:34:52;;;;;;;4.47;2.35;;;;;;;;;;1042214;28;20028;-72
2024/03/14 00:35:23;;;;;;;1.48;1.38;;;;;;;;;;1042269;28;20021;-72
2024/03/14 00:35:54;;;;;;;6.57;2.42;;;;;;;;;;1042726;28;20466;-73
2024/03/14 00:36:25;;;;;;;4.47;3.88;;;;;;;;;;1043634;28;20031;-73
2024/03/14 00:36:56;;;;;;;3.50;2.17;;;;;;;;;;1040082;28;20026;-73
2024/03/14 00:37:27;;;;;;;4.63;2.90;;;;;;;;;;1040451;28;20413;-72
2024/03/14 00:37:59;;;;;;;1.98;1.42;;;;;;;;;;1040258;28;20029;-72
2024/03/14 00:38:30;;;;;;;5.00;0.98;;;;;;;;;;1042437;28;20543;-72
2024/03/14 00:39:00;;;;;;;1.05;1.05;;;;;;;;;;1042939;28;20018;-72
2024/03/14 00:39:31;;;;;;;0.55;0.55;;;;;;;;;;1046420;28;20048;-72
2024/03/14 00:40:03;;;;;;;3.22;1.77;;;;;;;;;;1043139;28;20037;-72
2024/03/14 00:40:35;;;;;;;0.68;0.68;;;;;;;;;;1042784;28;20028;-72
2024/03/14 00:41:06;;;;;;;7.88;2.20;;;;;;;;;;1046648;28;20016;-72
2024/03/14 00:41:36;;;;;;;4.03;3.47;;;;;;;;;;1042268;28;20025;-72
2024/03/14 00:42:10;;;;;;;1.58;1.48;;;;;;;;;;1041966;28;20029;-73
2024/03/14 00:42:45;;;;;;;9.63;1.70;;;;;;;;;;1041968;28;20484;-72
2024/03/14 00:43:17;;;;;;;4.28;2.03;;;;;;;;;;1040225;28;20013;-73
2024/03/14 00:43:47;;;;;;;8.82;2.88;;;;;;;;;;1043138;28;20016;-72
2024/03/14 00:44:18;;;;;;;1.67;1.58;;;;;;;;;;1042889;28;20503;-71
2024/03/14 00:44:49;;;;;;;1.33;1.23;;;;;;;;;;1046621;28;20078;-73
2024/03/14 00:45:20;;;;;;;0.68;0.68;;;;;;;;;;1046107;28;20467;-73
2024/03/14 00:45:50;;;;;;;4.15;3.10;;;;;;;;;;1042206;28;20124;-73
2024/03/14 00:46:22;;;;;;;3.45;3.15;;;;;;;;;;1042213;28;20083;-73
2024/03/14 00:46:53;;;;;;;1.83;1.50;;;;;;;;;;1038719;28;20025;-73
2024/03/14 00:47:25;;;;;;;3.97;1.33;;;;;;;;;;1041007;28;20027;-73
2024/03/14 00:47:57;;;;;;;1.70;1.60;;;;;;;;;;1040576;28;20022;-73
2024/03/14 00:48:28;;;;;;;6.60;2.47;;;;;;;;;;1039752;28;20151;-72
2024/03/14 00:49:00;;;;;;;3.38;2.40;;;;;;;;;;1038732;28;20033;-72
2024/03/14 00:49:31;;;;;;;2.75;1.40;;;;;;;;;;1043140;28;20029;-73
2024/03/14 00:50:08;;;;;;;1.40;1.30;;;;;;;;;;1043461;28;20016;-72
2024/03/14 00:50:41;;;;;;;15.73;2.47;;;;;;;;;;1042562;28;20522;-73
2024/03/14 00:51:14;;;;;;;1.15;1.13;;;;;;;;;;1043626;28;20469;-73
2024/03/14 00:51:44;;;;;;;1.63;1.52;;;;;;;;;;1043944;28;20452;-73
2024/03/14 00:52:17;;;;;;;2.45;2.25;;;;;;;;;;1044780;28;20477;-72
2024/03/14 00:52:48;;;;;;;1.88;1.70;;;;;;;;;;1043947;28;20514;-72
2024/03/14 00:53:18;;;;;;;2.33;1.67;;;;;;;;;;1043349;28;20028;-72
2024/03/14 00:53:51;;;;;;;25.45;2.92;;;;;;;;;;1042871;28;20082;-73
2024/03/14 00:54:22;;;;;;;1.95;1.85;;;;;;;;;;1046541;28;20087;-73
2024/03/14 00:54:53;;;;;;;7.22;2.22;;;;;;;;;;1046837;28;20193;-73
2024/03/14 00:55:23;;;;;;;3.33;2.67;;;;;;;;;;1046556;28;20044;-73
2024/03/14 00:55:54;;;;;;;2.90;1.05;;;;;;;;;;1045153;28;20029;-73
2024/03/14 00:56:26;;;;;;;8.15;5.03;;;;;;;;;;1045774;28;20129;-72
2024/03/14 00:56:57;;;;;;;10.00;3.50;;;;;;;;;;1041641;28;20028;-73
2024/03/14 00:57:28;;;;;;;2.35;2.15;;;;;;;;;;1043281;28;20013;-72
2024/03/14 00:58:01;;;;;;;8.27;2.58;;;;;;;;;;1042200;28;20124;-73
2024/03/14 00:58:32;;;;;;;1.17;1.17;;;;;;;;;;1038751;28;20051;-73
2024/03/14 00:59:03;;;;;;;2.00;1.90;;;;;;;;;;1041950;28;20445;-73
2024/03/14 00:59:34;;;;;;;2.40;2.30;;;;;;;;;;1042914;28;20155;-73
2024/03/14 01:00:11;;;;;;;1.75;1.63;;;;;;;;;;1041812;28;20033;-73
2024/03/14 01:00:42;;;;;;;9.07;2.83;;;;;;;;;;1039153;28;20079;-73
2024/03/14 01:01:15;;;;;;;2.65;2.45;;;;;;;;;;1040154;28;20048;-72
2024/03/14 01:01:46;;;;;;;5.93;2.80;;;;;;;;;;1041348;28;20010;-72
2024/03/14 01:02:19;;;;;;;1.52;1.42;;;;;;;;;;1043338;28;20562;-74
2024/03/14 01:02:50;;;;;;;0.55;0.55;;;;;;;;;;1045743;28;20024;-74
2024/03/14 01:03:21;;;;;;;7.32;1.75;;;;;;;;;;1042402;28;20017;-72
2024/03/14 01:03:52;;;;;;;3.83;3.22;;;;;;;;;;1039298;28;20112;-72
2024/03/14 01:04:23;;;;;;;3.88;2.20;;;;;;;;;;1040191;28;20163;-73
2024/03/14 01:04:54;;;;;;;7.75;0.98;;;;;;;;;;1036177;28;20118;-73
2024/03/14 01:05:25;;;;;;;4.63;2.28;;;;;;;;;;1040384;28;20840;-72
2024/03/14 01:05:57;;;;;;;6.88;2.75;;;;;;;;;;1043321;28;20024;-72
2024/03/14 01:06:28;;;;;;;2.05;1.88;;;;;;;;;;1039384;28;20047;-73
2024/03/14 01:06:59;;;;;;;1.70;1.60;;;;;;;;;;1042017;28;20071;-73
2024/03/14 01:07:30;;;;;;;8.00;4.95;;;;;;;;;;1043217;28;20027;-73
2024/03/14 01:08:02;;;;;;;11.23;2.72;;;;;;;;;;1043099;28;20028;-73
2024/03/14 01:08:32;;;;;;;9.18;4.35;;;;;;;;;;1046927;28;20104;-72
2024/03/14 01:09:04;;;;;;;0.70;0.70;;;;;;;;;;1046062;28;20025;-73
2024/03/14 01:09:35;;;;;;;4.95;2.50;;;;;;;;;;1044246;28;20025;-73
2024/03/14 01:10:06;;;;;;;18.52;3.47;;;;;;;;;;1043701;28;20106;-72
2024/03/14 01:10:37;;;;;;;3.58;3.25;;;;;;;;;;1042917;28;20095;-73
2024/03/14 01:11:08;;;;;;;1.60;1.50;;;;;;;;;;1040080;28;20025;-72
2024/03/14 01:11:39;;;;;;;7.15;3.95;;;;;;;;;;1044048;28;20028;-73
2024/03/14 01:12:10;;;;;;;8.40;1.40;;;;;;;;;;1044026;28;20021;-72
2024/03/14 01:12:41;;;;;;;1.52;1.27;;;;;;;;;;1042683;28;20117;-73
2024/03/14 01:13:12;;;;;;;4.38;3.20;;;;;;;;;;1040216;28;20025;-73
2024/03/14 01:13:43;;;;;;;10.50;2.60;;;;;;;;;;1042535;28;20072;-73
2024/03/14 01:14:14;;;;;;;2.17;2.03;;;;;;;;;;1043318;28;20021;-73
2024/03/14 01:14:46;;;;;;;8.45;2.20;;;;;;;;;;1043650;28;20017;-72
2024/03/14 01:15:17;;;;;;;2.60;2.03;;;;;;;;;;1044014;28;20120;-73
2024/03/14 01:15:48;;;;;;;1.13;1.05;;;;;;;;;;1045393;28;20024;-72
2024/03/14 01:16:19;;;;;;;2.13;2.03;;;;;;;;;;1040007;28;20021;-73
2024/03/14 01:16:51;;;;;;;4.40;1.52;;;;;;;;;;1043886;28;20033;-73
2024/03/14 01:17:22;;;;;;;1.15;1.05;;;;;;;;;;1043705;28;20017;-74
2024/03/14 01:17:54;;;;;;;2.85;2.38;;;;;;;;;;1044378;28;20119;-72
2024/03/14 01:18:27;;;;;;;3.45;2.72;;;;;;;;;;1045460;28;20535;-73
2024/03/14 01:18:59;;;;;;;2.13;2.00;;;;;;;;;;1041280;28;20022;-72
2024/03/14 01:19:30;;;;;;;3.65;3.35;;;;;;;;;;1041281;28;20052;-72
2024/03/14 01:20:02;;;;;;;5.95;3.42;;;;;;;;;;1043314;28;20021;-73
2024/03/14 01:20:33;;;;;;;1.33;1.27;;;;;;;;;;1045569;28;20016;-72
2024/03/14 01:21:08;;;;;;;0.45;0.45;;;;;;;;;;1046038;28;20407;-72
2024/03/14 01:21:38;;;;;;;3.53;2.90;;;;;;;;;;1045721;28;20021;-72
2024/03/14 01:22:09;;;;;;;1.63;1.52;;;;;;;;;;1044893;28;20020;-72
2024/03/14 01:22:40;;;;;;;2.80;2.60;;;;;;;;;;1040823;28;20052;-72
2024/03/14 01:23:11;;;;;;;2.55;2.03;;;;;;;;;;1040539;28;20144;-73
2024/03/14 01:23:44;;;;;;;9.38;3.00;;;;;;;;;;1039774;28;20033;-74
2024/03/14 01:24:15;;;;;;;2.17;1.98;;;;;;;;;;1039729;28;20048;-72
2024/03/14 01:24:46;;;;;;;3.25;1.95;;;;;;;;;;1042194;28;20021;-72
2024/03/14 01:25:16;;;;;;;2.47;2.28;;;;;;;;;;1041218;28;20057;-72
2024/03/14 01:25:47;;;;;;;2.78;2.58;;;;;;;;;;1041972;28;20036;-73
2024/03/14 01:26:21;;;;;;;2.85;2.63;;;;;;;;;;1035469;28;20377;-73
2024/03/14 01:26:52;;;;;;;2.08;1.27;;;;;;;;;;1040199;28;20021;-73
2024/03/14 01:27:23;;;;;;;3.47;1.88;;;;;;;;;;1041078;28;20039;-73
2024/03/14 01:27:55;;;;;;;2.53;1.48;;;;;;;;;;1042068;28;20060;-72
2024/03/14 01:28:25;;;;;;;3.08;2.15;;;;;;;;;;1035237;28;20030;-72
2024/03/14 01:28:57;;;;;;;3.40;2.10;;;;;;;;;;1037372;28;20049;-72
2024/03/14 01:29:28;;;;;;;6.10;3.75;;;;;;;;;;1040866;28;20029;-74
2024/03/14 01:29:58;;;;;;;5.43;4.13;;;;;;;;;;1039441;28;20111;-73
2024/03/14 01:30:29;;;;;;;3.22;3.03;;;;;;;;;;1043377;28;20024;-73
2024/03/14 01:31:00;;;;;;;4.47;3.33;;;;;;;;;;1042416;28;20127;-74
2024/03/14 01:31:32;;;;;;;0.63;0.63;;;;;;;;;;1041062;28;20021;-75
2024/03/14 01:32:04;;;;;;;0.32;0.32;;;;;;;;;;1045345;28;20028;-73
2024/03/14 01:32:35;;;;;;;1.10;0.95;;;;;;;;;;1041288;28;20535;-73
2024/03/14 01:33:05;;;;;;;7.78;1.98;;;;;;;;;;1039814;28;20056;-73
2024/03/14 01:33:36;;;;;;;10.25;2.88;;;;;;;;;;1040656;28;20431;-74
2024/03/14 01:34:07;;;;;;;3.65;3.17;;;;;;;;;;1040163;28;20112;-74
2024/03/14 01:34:38;;;;;;;2.15;1.98;;;;;;;;;;1039179;28;20471;-73
2024/03/14 01:35:09;;;;;;;3.85;2.00;;;;;;;;;;1040041;28;20040;-74
2024/03/14 01:35:41;;;;;;;1.13;1.08;;;;;;;;;;1041530;28;20025;-73
2024/03/14 01:36:11;;;;;;;2.72;1.92;;;;;;;;;;1040335;28;20051;-73
2024/03/14 01:36:43;;;;;;;2.85;2.65;;;;;;;;;;1041643;28;20025;-74
2024/03/14 01:37:15;;;;;;;1.38;1.27;;;;;;;;;;1044340;28;20074;-74
2024/03/14 01:37:47;;;;;;;2.88;2.60;;;;;;;;;;1040255;28;20088;-72
2024/03/14 01:38:17;;;;;;;4.18;2.15;;;;;;;;;;1040337;28;20488;-73
2024/03/14 01:38:48;;;;;;;6.35;3.33;;;;;;;;;;1040722;28;20027;-72
2024/03/14 01:39:26;;;;;;;0.60;0.60;;;;;;;;;;1038102;28;20140;-74
2024/03/14 01:39:57;;;;;;;5.55;1.17;;;;;;;;;;1041760;28;20087;-72
2024/03/14 01:40:28;;;;;;;5.72;2.55;;;;;;;;;;1041278;28;20020;-72
2024/03/14 01:40:59;;;;;;;3.03;2.75;;;;;;;;;;1042913;28;20163;-74
2024/03/14 01:41:30;;;;;;;3.53;2.05;;;;;;;;;;1042389;28;20397;-74
2024/03/14 01:42:02;;;;;;;12.30;2.55;;;;;;;;;;1041741;28;20021;-74
2024/03/14 01:42:32;;;;;;;6.82;1.20;;;;;;;;;;1042458;28;20025;-73
2024/03/14 01:43:03;;;;;;;3.30;2.75;;;;;;;;;;1043752;28;20017;-72
2024/03/14 01:43:33;;;;;;;3.55;2.63;;;;;;;;;;1044442;28;20020;-73
2024/03/14 01:44:04;;;;;;;1.80;1.50;;;;;;;;;;1042680;28;20029;-74
2024/03/14 01:44:44;;;;;;;0.68;0.68;;;;;;;;;;1044119;28;20031;-73
2024/03/14 01:45:15;;;;;;;5.43;1.63;;;;;;;;;;1045587;28;20434;-73
2024/03/14 01:45:49;;;;;;;4.03;2.40;;;;;;;;;;1045219;28;20770;-72
2024/03/14 01:46:19;;;;;;;4.28;3.70;;;;;;;;;;1040336;28;20028;-74
2024/03/14 01:46:50;;;;;;;12.35;2.67;;;;;;;;;;1043280;28;20017;-74
2024/03/14 01:47:23;;;;;;;2.65;1.40;;;;;;;;;;1041700;28;20033;-73
2024/03/14 01:47:54;;;;;;;2.13;1.90;;;;;;;;;;1041396;28;20400;-74
2024/03/14 01:48:25;;;;;;;7.63;2.95;;;;;;;;;;1038738;28;20091;-72
2024/03/14 01:48:57;;;;;;;0.60;0.60;;;;;;;;;;1045988;28;20085;-74
2024/03/14 01:49:28;;;;;;;0.75;0.70;;;;;;;;;;1045021;28;20041;-74
2024/03/14 01:50:01;;;;;;;4.35;3.00;;;;;;;;;;1046070;28;20052;-74
2024/03/14 01:50:31;;;;;;;2.47;1.80;;;;;;;;;;1044666;28;20033;-75
2024/03/14 01:51:02;;;;;;;3.13;1.20;;;;;;;;;;1041860;28;20025;-74
2024/03/14 01:51:34;;;;;;;2.00;1.80;;;;;;;;;;1041830;28;20025;-73
2024/03/14 01:52:05;;;;;;;2.50;1.00;;;;;;;;;;1041275;28;20803;-75
2024/03/14 01:52:35;;;;;;;1.92;1.83;;;;;;;;;;1045751;28;20487;-73
2024/03/14 01:53:06;;;;;;;0.95;0.95;;;;;;;;;;1044926;28;20024;-74
2024/03/14 01:53:39;;;;;;;0.75;0.75;;;;;;;;;;1044860;28;20020;-73
2024/03/14 01:54:11;;;;;;;3.00;1.70;;;;;;;;;;1043219;28;20092;-74
2024/03/14 01:54:43;;;;;;;3.53;2.47;;;;;;;;;;1044869;28;20028;-74
2024/03/14 01:55:15;;;;;;;1.85;1.55;;;;;;;;;;1044507;28;20423;-74
2024/03/14 01:55:46;;;;;;;2.80;2.08;;;;;;;;;;1041260;28;20045;-74
2024/03/14 01:56:17;;;;;;;1.88;0.88;;;;;;;;;;1040614;28;20079;-73
2024/03/14 01:56:57;;;;;;;2.30;1.27;;;;;;;;;;1038820;28;20048;-71
2024/03/14 01:57:29;;;;;;;2.65;2.35;;;;;;;;;;1038942;28;20064;-71
2024/03/14 01:58:00;;;;;;;4.32;3.03;;;;;;;;;;1037344;28;20521;-71
2024/03/14 01:58:31;;;;;;;1.92;1.30;;;;;;;;;;1036107;28;20029;-73
2024/03/14 01:59:03;;;;;;;9.23;1.60;;;;;;;;;;1041032;28;20435;-71
2024/03/14 01:59:34;;;;;;;1.30;1.20;;;;;;;;;;1042820;28;20044;-73
2024/03/14 02:00:05;;;;;;;1.73;1.63;;;;;;;;;;1043009;28;20170;-73
2024/03/14 02:00:40;;;;;;;0.20;0.20;;;;;;;;;;1043876;28;20037;-74
2024/03/14 02:01:12;;;;;;;4.32;2.15;;;;;;;;;;1040226;28;20074;-75
2024/03/14 02:01:43;;;;;;;2.47;2.10;;;;;;;;;;1041568;28;20021;-73
2024/03/14 02:02:14;;;;;;;0.77;0.77;;;;;;;;;;1040191;28;20028;-74
2024/03/14 02:02:46;;;;;;;2.38;2.17;;;;;;;;;;1035995;28;20813;-74
2024/03/14 02:03:18;;;;;;;0.90;0.90;;;;;;;;;;1036278;28;20056;-74
2024/03/14 02:03:54;;;;;;;4.65;1.63;;;;;;;;;;1037973;28;20820;-74
2024/03/14 02:04:32;;;;;;;3.70;2.03;;;;;;;;;;1034771;28;20440;-74
2024/03/14 02:05:23;;;;;;;1.05;1.00;;;;;;;;;;1035710;28;20809;-74
2024/03/14 02:06:01;;;;;;;1.50;0.85;;;;;;;;;;1036931;28;20550;-72
2024/03/14 02:06:42;;;;;;;2.45;2.25;;;;;;;;;;1035200;28;20029;-73
2024/03/14 02:07:14;;;;;;;1.55;0.63;;;;;;;;;;1038438;28;20029;-72
2024/03/14 02:07:45;;;;;;;3.00;2.22;;;;;;;;;;1030876;28;20048;-71
2024/03/14 02:08:16;;;;;;;2.97;2.70;;;;;;;;;;1032361;28;20018;-73
2024/03/14 02:08:47;;;;;;;0.65;0.65;;;;;;;;;;1033215;28;20393;-75
2024/03/14 02:09:22;;;;;;;1.27;1.17;;;;;;;;;;1032875;28;20105;-76
2024/03/14 02:09:52;;;;;;;1.77;1.65;;;;;;;;;;1040172;28;20025;-75
2024/03/14 02:10:26;;;;;;;1.70;1.10;;;;;;;;;;1042532;28;20025;-74
2024/03/14 02:10:56;;;;;;;0.75;0.75;;;;;;;;;;1040802;28;20040;-74
2024/03/14 02:11:31;;;;;;;4.75;1.95;;;;;;;;;;1041220;28;20024;-75
2024/03/14 02:12:05;;;;;;;1.83;1.15;;;;;;;;;;1039180;28;20827;-75
2024/03/14 02:12:36;;;;;;;2.92;1.13;;;;;;;;;;1036093;28;20032;-74
2024/03/14 02:13:10;;;;;;;1.45;1.15;;;;;;;;;;1039173;28;20060;-75
2024/03/14 02:13:40;;;;;;;0.65;0.65;;;;;;;;;;1039872;28;20608;-74
2024/03/14 02:14:12;;;;;;;1.83;1.58;;;;;;;;;;1037344;28;20022;-73
2024/03/14 02:14:45;;;;;;;0.40;0.40;;;;;;;;;;1034727;28;20068;-75
2024/03/14 02:15:16;;;;;;;0.60;0.60;;;;;;;;;;1038987;28;20035;-74
2024/03/14 02:15:46;;;;;;;1.90;1.80;;;;;;;;;;1040726;28;20017;-75
2024/03/14 02:16:17;;;;;;;0.70;0.70;;;;;;;;;;1041097;28;20027;-75
2024/03/14 02:16:49;;;;;;;2.50;2.30;;;;;;;;;;1036541;28;20501;-75
2024/03/14 02:17:21;;;;;;;1.05;1.02;;;;;;;;;;1042920;28;20020;-75
2024/03/14 02:17:52;;;;;;;1.48;1.38;;;;;;;;;;1038536;28;20029;-74
2024/03/14 02:18:23;;;;;;;3.83;2.78;;;;;;;;;;1036058;28;20013;-74
2024/03/14 02:18:54;;;;;;;1.65;1.55;;;;;;;;;;1039027;28;20764;-74
2024/03/14 02:19:25;;;;;;;1.50;1.17;;;;;;;;;;1039507;28;20031;-73
2024/03/14 02:19:56;;;;;;;6.13;2.53;;;;;;;;;;1038939;28;20030;-75
2024/03/14 02:20:30;;;;;;;2.65;1.67;;;;;;;;;;1044139;28;20024;-75
2024/03/14 02:21:01;;;;;;;5.30;2.80;;;;;;;;;;1040859;28;20035;-75
2024/03/14 02:21:32;;;;;;;0.98;0.98;;;;;;;;;;1034217;28;20030;-75
2024/03/14 02:22:04;;;;;;;3.60;2.42;;;;;;;;;;1038534;28;20037;-75
2024/03/14 02:22:34;;;;;;;2.33;2.15;;;;;;;;;;1038239;28;20052;-75
2024/03/14 02:23:05;;;;;;;5.38;2.42;;;;;;;;;;1040740;28;20021;-74
2024/03/14 02:23:36;;;;;;;0.82;0.82;;;;;;;;;;1043715;28;20115;-74
2024/03/14 02:24:07;;;;;;;4.63;3.50;;;;;;;;;;1041453;28;20035;-76
2024/03/14 02:24:38;;;;;;;8.60;1.35;;;;;;;;;;1039795;28;20210;-75
2024/03/14 02:25:10;;;;;;;4.68;2.70;;;;;;;;;;1040824;28;20029;-74
2024/03/14 02:25:42;;;;;;;1.13;1.10;;;;;;;;;;1040330;28;20024;-75
2024/03/14 02:26:13;;;;;;;2.83;0.85;;;;;;;;;;1040976;28;20096;-75
2024/03/14 02:26:44;;;;;;;1.77;1.67;;;;;;;;;;1037444;28;20022;-76
2024/03/14 02:27:16;;;;;;;2.10;1.42;;;;;;;;;;1038796;28;20621;-72
2024/03/14 02:27:48;;;;;;;1.88;1.77;;;;;;;;;;1041067;28;20029;-74
2024/03/14 02:28:19;;;;;;;3.08;1.83;;;;;;;;;;1034976;28;20153;-75
2024/03/14 02:28:50;;;;;;;2.15;1.20;;;;;;;;;;1033514;28;20075;-75
2024/03/14 02:29:22;;;;;;;1.92;1.52;;;;;;;;;;1027574;28;20026;-74
2024/03/14 02:29:57;;;;;;;0.50;0.50;;;;;;;;;;1026744;28;20042;-73
2024/03/14 02:30:28;;;;;;;2.50;1.63;;;;;;;;;;1031601;28;20037;-75
2024/03/14 02:30:59;;;;;;;2.83;1.75;;;;;;;;;;1032829;28;20033;-74
2024/03/14 02:31:36;;;;;;;6.65;1.98;;;;;;;;;;1035914;28;20147;-75
2024/03/14 02:32:09;;;;;;;1.15;1.13;;;;;;;;;;1038584;28;20032;-74
2024/03/14 02:32:42;;;;;;;2.72;1.13;;;;;;;;;;1039241;28;20032;-74
2024/03/14 02:33:14;;;;;;;2.40;2.20;;;;;;;;;;1039543;28;20459;-76
2024/03/14 02:33:46;;;;;;;3.25;1.20;;;;;;;;;;1040478;28;20639;-75
2024/03/14 02:34:21;;;;;;;1.63;1.48;;;;;;;;;;1035665;28;20018;-76
2024/03/14 02:34:52;;;;;;;0.68;0.68;;;;;;;;;;1038009;28;20168;-75
2024/03/14 02:35:24;;;;;;;10.85;2.10;;;;;;;;;;1037338;28;20582;-75
2024/03/14 02:35:58;;;;;;;9.35;3.58;;;;;;;;;;1036408;28;20064;-76
2024/03/14 02:36:30;;;;;;;3.83;1.25;;;;;;;;;;1036170;28;20034;-76
2024/03/14 02:37:02;;;;;;;2.00;1.88;;;;;;;;;;1035400;28;20057;-75
2024/03/14 02:37:34;;;;;;;2.08;1.90;;;;;;;;;;1035698;28;20493;-75
2024/03/14 02:38:07;;;;;;;1.67;1.42;;;;;;;;;;1038037;28;20026;-75
2024/03/14 02:38:40;;;;;;;1.38;1.27;;;;;;;;;;1039831;28;20492;-75
2024/03/14 02:39:10;;;;;;;8.07;1.95;;;;;;;;;;1039441;28;20047;-75
2024/03/14 02:39:44;;;;;;;7.97;3.03;;;;;;;;;;1040254;28;20595;-75
2024/03/14 02:40:15;;;;;;;5.43;2.05;;;;;;;;;;1040308;28;20112;-75
2024/03/14 02:40:48;;;;;;;1.85;1.75;;;;;;;;;;1038523;28;20370;-75
2024/03/14 02:41:21;;;;;;;2.83;1.40;;;;;;;;;;1039677;28;20036;-76
2024/03/14 02:41:52;;;;;;;1.25;1.08;;;;;;;;;;1039366;28;20108;-75
2024/03/14 02:42:24;;;;;;;1.83;1.73;;;;;;;;;;1039488;28;20533;-76
2024/03/14 02:42:58;;;;;;;2.75;2.55;;;;;;;;;;1036111;28;20103;-79
2024/03/14 02:43:29;;;;;;;1.60;1.50;;;;;;;;;;1032480;28;20073;-76
2024/03/14 02:44:14;;;;;;;2.55;2.35;;;;;;;;;;1030429;28;20034;-76
2024/03/14 02:44:47;;;;;;;3.38;2.35;;;;;;;;;;1036165;28;20576;-76
2024/03/14 02:45:20;;;;;;;5.05;4.10;;;;;;;;;;1036457;28;20127;-75
2024/03/14 02:45:54;;;;;;;5.00;1.73;;;;;;;;;;1037755;28;20246;-75
2024/03/14 02:46:26;;;;;;;2.47;0.90;;;;;;;;;;1035019;28;20029;-75
2024/03/14 02:46:58;;;;;;;1.60;0.90;;;;;;;;;;1037730;28;20053;-73
2024/03/14 02:47:28;;;;;;;1.55;0.93;;;;;;;;;;1031678;28;20096;-76
2024/03/14 02:47:59;;;;;;;0.88;0.68;;;;;;;;;;1037282;28;20139;-76
2024/03/14 02:48:31;;;;;;;2.50;1.83;;;;;;;;;;1035623;28;20033;-75
2024/03/14 02:49:02;;;;;;;0.32;0.30;;;;;;;;;;1037454;28;20033;-75
2024/03/14 02:49:34;;;;;;;1.35;0.82;;;;;;;;;;1038748;28;20544;-75
2024/03/14 02:50:09;;;;;;;0.85;0.85;;;;;;;;;;1040523;28;20507;-75
2024/03/14 02:50:42;;;;;;;1.08;0.60;;;;;;;;;;1038714;28;20456;-77
2024/03/14 02:51:13;;;;;;;1.73;1.52;;;;;;;;;;1040141;28;20025;-75
2024/03/14 02:51:54;;;;;;;1.45;1.00;;;;;;;;;;1040974;28;20063;-75
2024/03/14 02:52:33;;;;;;;0.93;0.82;;;;;;;;;;1042481;28;20032;-75
2024/03/14 02:53:05;;;;;;;0.45;0.45;;;;;;;;;;1039099;28;20557;-75
2024/03/14 02:53:37;;;;;;;1.45;1.02;;;;;;;;;;1040050;28;20103;-75
2024/03/14 02:54:09;;;;;;;1.38;1.27;;;;;;;;;;1040229;28;20024;-75
2024/03/14 02:54:40;;;;;;;2.97;1.80;;;;;;;;;;1038176;28;20028;-74
2024/03/14 02:55:11;;;;;;;1.45;1.35;;;;;;;;;;1039511;28;20021;-75
2024/03/14 02:55:44;;;;;;;0.73;0.73;;;;;;;;;;1038666;28;20049;-75
2024/03/14 02:56:14;;;;;;;1.45;1.17;;;;;;;;;;1041518;28;20229;-76
2024/03/14 02:56:47;;;;;;;1.55;1.45;;;;;;;;;;1042225;28;20017;-74
2024/03/14 02:57:18;;;;;;;5.18;0.63;;;;;;;;;;1036113;28;20116;-74
2024/03/14 02:57:48;;;;;;;2.03;1.60;;;;;;;;;;1042512;28;20016;-74
2024/03/14 02:58:19;;;;;;;1.80;1.38;;;;;;;;;;1016746;28;20410;-74
2024/03/14 02:58:50;;;;;;;0.85;0.63;;;;;;;;;;1039705;28;20021;-75
2024/03/14 02:59:20;;;;;;;3.75;1.38;;;;;;;;;;1039636;28;20127;-74
2024/03/14 02:59:52;;;;;;;1.67;1.58;;;;;;;;;;1039264;28;20472;-74
2024/03/14 03:00:22;;;;;;;0.77;0.77;;;;;;;;;;1040634;28;20033;-74
2024/03/14 03:00:54;;;;;;;4.57;0.82;;;;;;;;;;1042063;28;20025;-76
2024/03/14 03:01:24;;;;;;;1.45;1.33;;;;;;;;;;1037984;28;20020;-74
2024/03/14 03:01:55;;;;;;;1.23;1.13;;;;;;;;;;1037397;28;20033;-75
2024/03/14 03:02:26;;;;;;;1.55;1.45;;;;;;;;;;1042535;28;20029;-74
2024/03/14 03:02:57;;;;;;;1.65;1.52;;;;;;;;;;1041962;28;20396;-74
2024/03/14 03:03:28;;;;;;;1.35;1.27;;;;;;;;;;1041888;28;20120;-75
2024/03/14 03:03:59;;;;;;;0.40;0.22;;;;;;;;;;1038746;28;20051;-74
2024/03/14 03:04:30;;;;;;;0.13;0.13;;;;;;;;;;1034211;28;20121;-73
2024/03/14 03:05:01;;;;;;;0.15;0.15;;;;;;;;;;1034099;28;20061;-73
2024/03/14 03:05:31;;;;;;;0.47;0.47;;;;;;;;;;1034833;28;20179;-74
2024/03/14 03:06:03;;;;;;;0.45;0.45;;;;;;;;;;1042344;28;20012;-74
2024/03/14 03:06:33;;;;;;;3.30;0.95;;;;;;;;;;1046069;28;20712;-75
2024/03/14 03:07:05;;;;;;;4.38;0.98;;;;;;;;;;1042755;28;20033;-74
2024/03/14 03:07:37;;;;;;;0.45;0.40;;;;;;;;;;1043625;28;20102;-76
2024/03/14 03:08:08;;;;;;;2.83;1.85;;;;;;;;;;1043674;28;20028;-75
2024/03/14 03:08:38;;;;;;;0.65;0.65;;;;;;;;;;1041491;28;20653;-73
2024/03/14 03:09:12;;;;;;;0.38;0.38;;;;;;;;;;1036076;28;20026;-75
2024/03/14 03:09:44;;;;;;;1.50;1.38;;;;;;;;;;1041143;28;20048;-76
2024/03/14 03:10:16;;;;;;;0.93;0.85;;;;;;;;;;1039650;28;20059;-76
2024/03/14 03:10:47;;;;;;;0.40;0.40;;;;;;;;;;1041156;28;20024;-77